sensor_id;sensor_type;location;lat;lon;timestamp;pressure;altitude;pressure_sealevel;temperature;humidity
69214;BME280;56325;47.030;18.518;2023-04-10T00:00:01;101226.75;;;5.41;80.50
69214;BME280;56325;47.030;18.518;2023-04-10T00:02:36;101225.06;;;5.61;80.02
69214;BME280;56325;47.030;18.518;2023-04-10T00:05:11;101222.75;;;5.59;79.43
69214;BME280;56325;47.030;18.518;2023-04-10T00:07:47;101213.72;;;5.70;78.99
69214;BME280;56325;47.030;18.518;2023-04-10T00:10:22;101219.56;;;5.68;78.64
69214;BME280;56325;47.030;18.518;2023-04-10T00:12:58;101219.53;;;5.75;78.27
69214;BME280;56325;47.030;18.518;2023-04-10T00:15:35;101211.34;;;5.75;78.07
69214;BME280;56325;47.030;18.518;2023-04-10T00:18:10;101220.28;;;5.76;78.49
69214;BME280;56325;47.030;18.518;2023-04-10T00:20:45;101216.41;;;5.73;78.49
69214;BME280;56325;47.030;18.518;2023-04-10T00:23:21;101210.19;;;5.73;78.26
69214;BME280;56325;47.030;18.518;2023-04-10T00:25:56;101210.69;;;5.57;78.40
69214;BME280;56325;47.030;18.518;2023-04-10T00:28:30;101216.56;;;5.52;78.21
69214;BME280;56325;47.030;18.518;2023-04-10T00:31:05;101211.84;;;5.56;78.16
69214;BME280;56325;47.030;18.518;2023-04-10T00:33:39;101214.53;;;5.63;77.21
69214;BME280;56325;47.030;18.518;2023-04-10T00:36:14;101207.63;;;5.48;76.82
69214;BME280;56325;47.030;18.518;2023-04-10T00:38:51;101206.50;;;5.42;76.81
69214;BME280;56325;47.030;18.518;2023-04-10T00:41:26;101206.16;;;5.33;77.01
69214;BME280;56325;47.030;18.518;2023-04-10T00:44:01;101214.75;;;5.31;77.46
69214;BME280;56325;47.030;18.518;2023-04-10T00:46:36;101210.03;;;5.35;77.18
69214;BME280;56325;47.030;18.518;2023-04-10T00:49:12;101205.41;;;5.28;77.29
69214;BME280;56325;47.030;18.518;2023-04-10T00:51:47;101201.12;;;5.27;77.02
69214;BME280;56325;47.030;18.518;2023-04-10T00:54:23;101201.88;;;5.32;76.77
69214;BME280;56325;47.030;18.518;2023-04-10T00:56:57;101208.34;;;4.93;78.36
69214;BME280;56325;47.030;18.518;2023-04-10T00:59:32;101201.41;;;4.74;79.15
69214;BME280;56325;47.030;18.518;2023-04-10T01:02:07;101206.09;;;4.74;79.70
69214;BME280;56325;47.030;18.518;2023-04-10T01:04:43;101196.78;;;4.64;80.21
69214;BME280;56325;47.030;18.518;2023-04-10T01:07:26;101204.16;;;4.71;80.83
69214;BME280;56325;47.030;18.518;2023-04-10T01:10:13;101194.41;;;4.73;80.81
69214;BME280;56325;47.030;18.518;2023-04-10T01:12:55;101194.41;;;4.70;82.03
69214;BME280;56325;47.030;18.518;2023-04-10T01:15:38;101185.00;;;4.88;81.62
69214;BME280;56325;47.030;18.518;2023-04-10T01:18:21;101183.84;;;4.86;81.75
69214;BME280;56325;47.030;18.518;2023-04-10T01:20:58;101174.78;;;5.07;80.82
69214;BME280;56325;47.030;18.518;2023-04-10T01:24:09;101181.06;;;4.97;81.15
69214;BME280;56325;47.030;18.518;2023-04-10T01:27:07;101175.63;;;4.97;81.53
69214;BME280;56325;47.030;18.518;2023-04-10T01:29:49;101182.63;;;4.98;81.48
69214;BME280;56325;47.030;18.518;2023-04-10T01:32:27;101181.88;;;4.90;81.71
69214;BME280;56325;47.030;18.518;2023-04-10T01:35:06;101180.25;;;5.03;81.66
69214;BME280;56325;47.030;18.518;2023-04-10T01:37:42;101179.44;;;5.10;81.24
69214;BME280;56325;47.030;18.518;2023-04-10T01:40:20;101176.34;;;5.04;81.59
69214;BME280;56325;47.030;18.518;2023-04-10T01:42:56;101179.34;;;5.20;80.63
69214;BME280;56325;47.030;18.518;2023-04-10T01:45:34;101175.78;;;5.31;80.08
69214;BME280;56325;47.030;18.518;2023-04-10T01:48:10;101178.97;;;5.22;80.25
69214;BME280;56325;47.030;18.518;2023-04-10T01:50:45;101178.34;;;4.97;80.84
69214;BME280;56325;47.030;18.518;2023-04-10T01:53:22;101165.50;;;4.97;80.39
69214;BME280;56325;47.030;18.518;2023-04-10T01:55:57;101182.63;;;4.94;80.16
69214;BME280;56325;47.030;18.518;2023-04-10T01:58:32;101173.34;;;4.81;80.34
69214;BME280;56325;47.030;18.518;2023-04-10T02:01:17;101176.88;;;4.78;80.91
69214;BME280;56325;47.030;18.518;2023-04-10T02:04:02;101181.59;;;4.67;80.78
69214;BME280;56325;47.030;18.518;2023-04-10T02:06:43;101182.00;;;4.61;80.80
69214;BME280;56325;47.030;18.518;2023-04-10T02:09:22;101188.97;;;4.70;80.24
69214;BME280;56325;47.030;18.518;2023-04-10T02:12:04;101176.47;;;4.79;79.15
69214;BME280;56325;47.030;18.518;2023-04-10T02:14:42;101172.56;;;4.80;79.44
69214;BME280;56325;47.030;18.518;2023-04-10T02:17:23;101168.28;;;4.83;80.13
69214;BME280;56325;47.030;18.518;2023-04-10T02:20:00;101169.16;;;4.62;81.10
69214;BME280;56325;47.030;18.518;2023-04-10T02:22:36;101158.63;;;4.64;82.55
69214;BME280;56325;47.030;18.518;2023-04-10T02:25:11;101169.50;;;4.75;82.74
69214;BME280;56325;47.030;18.518;2023-04-10T02:27:45;101156.59;;;4.86;82.69
69214;BME280;56325;47.030;18.518;2023-04-10T02:30:20;101159.69;;;4.88;82.81
69214;BME280;56325;47.030;18.518;2023-04-10T02:32:57;101156.22;;;4.80;83.29
69214;BME280;56325;47.030;18.518;2023-04-10T02:35:32;101155.41;;;4.87;82.92
69214;BME280;56325;47.030;18.518;2023-04-10T02:38:08;101158.47;;;5.00;82.48
69214;BME280;56325;47.030;18.518;2023-04-10T02:40:43;101160.75;;;5.08;82.13
69214;BME280;56325;47.030;18.518;2023-04-10T02:43:18;101154.50;;;5.11;81.95
69214;BME280;56325;47.030;18.518;2023-04-10T02:45:52;101149.81;;;5.15;81.73
69214;BME280;56325;47.030;18.518;2023-04-10T02:48:29;101155.97;;;5.23;81.25
69214;BME280;56325;47.030;18.518;2023-04-10T02:51:04;101148.13;;;5.28;80.56
69214;BME280;56325;47.030;18.518;2023-04-10T02:53:39;101151.66;;;5.29;79.24
69214;BME280;56325;47.030;18.518;2023-04-10T02:56:27;101150.56;;;5.19;78.62
69214;BME280;56325;47.030;18.518;2023-04-10T02:59:02;101153.62;;;5.21;78.69
69214;BME280;56325;47.030;18.518;2023-04-10T03:01:38;101154.50;;;5.11;78.76
69214;BME280;56325;47.030;18.518;2023-04-10T03:04:14;101166.22;;;5.05;79.02
69214;BME280;56325;47.030;18.518;2023-04-10T03:06:49;101166.28;;;4.94;79.26
69214;BME280;56325;47.030;18.518;2023-04-10T03:09:23;101161.50;;;5.16;78.88
69214;BME280;56325;47.030;18.518;2023-04-10T03:11:58;101152.66;;;4.94;79.12
69214;BME280;56325;47.030;18.518;2023-04-10T03:14:34;101160.41;;;5.03;78.53
69214;BME280;56325;47.030;18.518;2023-04-10T03:17:09;101161.19;;;5.03;78.34
69214;BME280;56325;47.030;18.518;2023-04-10T03:19:45;101157.72;;;4.92;77.80
69214;BME280;56325;47.030;18.518;2023-04-10T03:22:20;101157.44;;;4.69;78.70
69214;BME280;56325;47.030;18.518;2023-04-10T03:24:54;101154.72;;;4.69;78.10
69214;BME280;56325;47.030;18.518;2023-04-10T03:27:29;101162.59;;;4.45;79.41
69214;BME280;56325;47.030;18.518;2023-04-10T03:30:08;101163.75;;;4.48;79.56
69214;BME280;56325;47.030;18.518;2023-04-10T03:32:43;101173.13;;;4.36;79.58
69214;BME280;56325;47.030;18.518;2023-04-10T03:35:19;101171.50;;;4.53;78.50
69214;BME280;56325;47.030;18.518;2023-04-10T03:37:54;101163.38;;;4.46;77.81
69214;BME280;56325;47.030;18.518;2023-04-10T03:40:28;101166.22;;;4.03;79.48
69214;BME280;56325;47.030;18.518;2023-04-10T03:43:03;101169.31;;;4.09;79.78
69214;BME280;56325;47.030;18.518;2023-04-10T03:45:38;101166.97;;;4.11;79.74
69214;BME280;56325;47.030;18.518;2023-04-10T03:48:12;101170.47;;;4.15;79.38
69214;BME280;56325;47.030;18.518;2023-04-10T03:50:48;101169.28;;;4.30;78.58
69214;BME280;56325;47.030;18.518;2023-04-10T03:53:23;101168.50;;;4.33;78.74
69214;BME280;56325;47.030;18.518;2023-04-10T03:55:58;101166.16;;;4.24;78.17
69214;BME280;56325;47.030;18.518;2023-04-10T03:58:33;101171.63;;;4.28;78.59
69214;BME280;56325;47.030;18.518;2023-04-10T04:01:08;101170.47;;;4.22;78.67
69214;BME280;56325;47.030;18.518;2023-04-10T04:03:44;101179.03;;;4.17;79.34
69214;BME280;56325;47.030;18.518;2023-04-10T04:06:24;101168.13;;;4.20;79.01
69214;BME280;56325;47.030;18.518;2023-04-10T04:08:59;101176.69;;;4.12;79.69
69214;BME280;56325;47.030;18.518;2023-04-10T04:11:34;101173.97;;;4.12;79.92
69214;BME280;56325;47.030;18.518;2023-04-10T04:14:11;101179.81;;;4.14;79.98
69214;BME280;56325;47.030;18.518;2023-04-10T04:16:46;101180.19;;;4.09;80.29
69214;BME280;56325;47.030;18.518;2023-04-10T04:19:23;101172.37;;;4.32;79.72
69214;BME280;56325;47.030;18.518;2023-04-10T04:22:05;101187.50;;;4.44;79.48
69214;BME280;56325;47.030;18.518;2023-04-10T04:24:40;101187.94;;;4.28;80.08
69214;BME280;56325;47.030;18.518;2023-04-10T04:27:18;101183.69;;;4.09;80.87
69214;BME280;56325;47.030;18.518;2023-04-10T04:29:54;101187.22;;;4.03;81.26
69214;BME280;56325;47.030;18.518;2023-04-10T04:32:29;101179.81;;;4.17;80.69
69214;BME280;56325;47.030;18.518;2023-04-10T04:35:04;101182.84;;;4.34;80.23
69214;BME280;56325;47.030;18.518;2023-04-10T04:37:40;101172.34;;;4.39;79.95
69214;BME280;56325;47.030;18.518;2023-04-10T04:40:16;101182.84;;;4.37;79.46
69214;BME280;56325;47.030;18.518;2023-04-10T04:42:50;101184.38;;;4.45;79.52
69214;BME280;56325;47.030;18.518;2023-04-10T04:45:25;101188.28;;;4.44;80.00
69214;BME280;56325;47.030;18.518;2023-04-10T04:48:01;101185.87;;;4.64;79.34
69214;BME280;56325;47.030;18.518;2023-04-10T04:50:39;101190.50;;;4.74;79.18
69214;BME280;56325;47.030;18.518;2023-04-10T04:53:17;101185.06;;;4.74;79.32
69214;BME280;56325;47.030;18.518;2023-04-10T04:55:52;101187.00;;;4.74;79.46
69214;BME280;56325;47.030;18.518;2023-04-10T04:58:27;101185.09;;;4.64;80.47
69214;BME280;56325;47.030;18.518;2023-04-10T05:01:02;101196.44;;;4.41;82.00
69214;BME280;56325;47.030;18.518;2023-04-10T05:03:37;101192.63;;;4.17;84.83
69214;BME280;56325;47.030;18.518;2023-04-10T05:06:14;101198.38;;;4.44;84.92
69214;BME280;56325;47.030;18.518;2023-04-10T05:08:52;101204.59;;;4.55;84.55
69214;BME280;56325;47.030;18.518;2023-04-10T05:11:28;101195.63;;;4.54;85.53
69214;BME280;56325;47.030;18.518;2023-04-10T05:14:03;101193.59;;;4.80;84.43
69214;BME280;56325;47.030;18.518;2023-04-10T05:16:38;101187.62;;;5.06;83.25
69214;BME280;56325;47.030;18.518;2023-04-10T05:19:13;101195.72;;;5.20;82.80
69214;BME280;56325;47.030;18.518;2023-04-10T05:21:52;101199.56;;;5.30;82.77
69214;BME280;56325;47.030;18.518;2023-04-10T05:24:29;101198.78;;;5.30;82.70
69214;BME280;56325;47.030;18.518;2023-04-10T05:27:04;101198.41;;;5.24;83.66
69214;BME280;56325;47.030;18.518;2023-04-10T05:29:39;101205.09;;;5.19;83.97
69214;BME280;56325;47.030;18.518;2023-04-10T05:32:14;101208.91;;;5.29;84.27
69214;BME280;56325;47.030;18.518;2023-04-10T05:34:49;101197.91;;;5.47;85.05
69214;BME280;56325;47.030;18.518;2023-04-10T05:37:23;101208.03;;;5.43;85.25
69214;BME280;56325;47.030;18.518;2023-04-10T05:40:00;101203.16;;;5.72;84.05
69214;BME280;56325;47.030;18.518;2023-04-10T05:42:35;101212.16;;;5.69;83.85
69214;BME280;56325;47.030;18.518;2023-04-10T05:45:10;101210.22;;;5.66;84.26
69214;BME280;56325;47.030;18.518;2023-04-10T05:47:49;101211.25;;;5.89;84.47
69214;BME280;56325;47.030;18.518;2023-04-10T05:50:24;101209.94;;;6.05;83.47
69214;BME280;56325;47.030;18.518;2023-04-10T05:53:01;101213.41;;;6.09;83.76
69214;BME280;56325;47.030;18.518;2023-04-10T05:55:40;101213.88;;;6.04;84.52
69214;BME280;56325;47.030;18.518;2023-04-10T05:58:16;101209.78;;;6.19;85.10
69214;BME280;56325;47.030;18.518;2023-04-10T06:02:51;101212.47;;;6.94;82.05
69214;BME280;56325;47.030;18.518;2023-04-10T06:05:28;101212.47;;;6.94;82.05
69214;BME280;56325;47.030;18.518;2023-04-10T06:08:03;101206.47;;;6.38;84.02
69214;BME280;56325;47.030;18.518;2023-04-10T06:10:39;101208.47;;;6.34;84.03
69214;BME280;56325;47.030;18.518;2023-04-10T06:13:15;101219.25;;;6.48;83.36
69214;BME280;56325;47.030;18.518;2023-04-10T06:15:50;101217.84;;;6.33;84.14
69214;BME280;56325;47.030;18.518;2023-04-10T06:18:26;101196.56;;;10.71;100.00
69214;BME280;56325;47.030;18.518;2023-04-10T06:21:01;101208.06;;;8.51;80.08
69214;BME280;56325;47.030;18.518;2023-04-10T06:23:35;101211.66;;;7.78;81.01
69214;BME280;56325;47.030;18.518;2023-04-10T06:26:10;101214.41;;;8.01;79.96
69214;BME280;56325;47.030;18.518;2023-04-10T06:28:45;101206.81;;;7.85;80.68
69214;BME280;56325;47.030;18.518;2023-04-10T06:31:20;101205.44;;;7.50;81.16
69214;BME280;56325;47.030;18.518;2023-04-10T06:33:56;101211.16;;;7.60;81.38
69214;BME280;56325;47.030;18.518;2023-04-10T06:36:31;101215.75;;;7.66;80.65
69214;BME280;56325;47.030;18.518;2023-04-10T06:39:07;101211.78;;;7.71;80.29
69214;BME280;56325;47.030;18.518;2023-04-10T06:41:42;101213.19;;;7.55;80.75
69214;BME280;56325;47.030;18.518;2023-04-10T06:44:18;101221.25;;;7.66;81.33
69214;BME280;56325;47.030;18.518;2023-04-10T06:46:52;101217.84;;;7.82;79.82
69214;BME280;56325;47.030;18.518;2023-04-10T06:49:28;101216.19;;;8.11;80.05
69214;BME280;56325;47.030;18.518;2023-04-10T06:52:03;101220.31;;;7.76;80.06
69214;BME280;56325;47.030;18.518;2023-04-10T06:54:39;101214.44;;;7.98;79.01
69214;BME280;56325;47.030;18.518;2023-04-10T06:57:13;101217.31;;;8.14;78.87
69214;BME280;56325;47.030;18.518;2023-04-10T06:59:48;101211.84;;;8.14;79.50
69214;BME280;56325;47.030;18.518;2023-04-10T07:02:23;101213.81;;;8.37;77.66
69214;BME280;56325;47.030;18.518;2023-04-10T07:04:58;101217.91;;;8.48;77.97
69214;BME280;56325;47.030;18.518;2023-04-10T07:07:33;101208.97;;;8.64;77.93
69214;BME280;56325;47.030;18.518;2023-04-10T07:10:09;101202.00;;;8.79;77.76
69214;BME280;56325;47.030;18.518;2023-04-10T07:12:43;101199.41;;;9.44;87.71
69214;BME280;56325;47.030;18.518;2023-04-10T07:15:18;101198.28;;;12.17;94.49
69214;BME280;56325;47.030;18.518;2023-04-10T07:17:53;101193.13;;;12.63;83.05
69214;BME280;56325;47.030;18.518;2023-04-10T07:20:29;101202.03;;;11.50;69.42
69214;BME280;56325;47.030;18.518;2023-04-10T07:23:04;101203.50;;;10.75;70.20
69214;BME280;56325;47.030;18.518;2023-04-10T07:25:43;101197.75;;;10.28;72.89
69214;BME280;56325;47.030;18.518;2023-04-10T07:28:22;101200.31;;;10.35;73.18
69214;BME280;56325;47.030;18.518;2023-04-10T07:30:56;101190.09;;;10.48;72.49
69214;BME280;56325;47.030;18.518;2023-04-10T07:33:31;101190.91;;;10.20;72.76
69214;BME280;56325;47.030;18.518;2023-04-10T07:36:07;101188.81;;;10.08;71.75
69214;BME280;56325;47.030;18.518;2023-04-10T07:38:42;101190.03;;;10.23;72.52
69214;BME280;56325;47.030;18.518;2023-04-10T07:41:16;101189.59;;;10.25;74.41
69214;BME280;56325;47.030;18.518;2023-04-10T07:43:51;101191.91;;;10.26;71.87
69214;BME280;56325;47.030;18.518;2023-04-10T07:46:25;101190.00;;;10.52;72.47
69214;BME280;56325;47.030;18.518;2023-04-10T07:49:00;101180.22;;;10.51;71.33
69214;BME280;56325;47.030;18.518;2023-04-10T07:51:36;101192.47;;;10.63;72.42
69214;BME280;56325;47.030;18.518;2023-04-10T07:54:11;101182.66;;;10.62;72.85
69214;BME280;56325;47.030;18.518;2023-04-10T07:56:46;101184.59;;;10.77;72.48
69214;BME280;56325;47.030;18.518;2023-04-10T07:59:20;101184.81;;;10.83;71.54
69214;BME280;56325;47.030;18.518;2023-04-10T08:01:55;101186.37;;;10.97;73.13
69214;BME280;56325;47.030;18.518;2023-04-10T08:04:29;101182.66;;;11.03;71.77
69214;BME280;56325;47.030;18.518;2023-04-10T08:07:06;101184.97;;;11.18;72.32
69214;BME280;56325;47.030;18.518;2023-04-10T08:09:40;101183.09;;;11.14;70.85
69214;BME280;56325;47.030;18.518;2023-04-10T08:12:15;101188.81;;;11.45;70.83
69214;BME280;56325;47.030;18.518;2023-04-10T08:14:50;101187.38;;;11.41;70.59
69214;BME280;56325;47.030;18.518;2023-04-10T08:17:24;101184.91;;;11.94;77.53
69214;BME280;56325;47.030;18.518;2023-04-10T08:19:59;101170.62;;;13.85;79.97
69214;BME280;56325;47.030;18.518;2023-04-10T08:22:35;101166.84;;;13.42;70.49
69214;BME280;56325;47.030;18.518;2023-04-10T08:25:09;101180.59;;;12.93;66.01
69214;BME280;56325;47.030;18.518;2023-04-10T08:27:44;101176.31;;;12.48;66.89
69214;BME280;56325;47.030;18.518;2023-04-10T08:30:19;101171.31;;;12.56;66.67
69214;BME280;56325;47.030;18.518;2023-04-10T08:32:53;101177.62;;;12.87;67.69
69214;BME280;56325;47.030;18.518;2023-04-10T08:35:29;101178.69;;;12.59;66.60
69214;BME280;56325;47.030;18.518;2023-04-10T08:38:05;101179.31;;;12.85;66.47
69214;BME280;56325;47.030;18.518;2023-04-10T08:40:46;101172.03;;;13.00;66.55
69214;BME280;56325;47.030;18.518;2023-04-10T14:03:01;100857.16;;;15.99;62.77
69214;BME280;56325;47.030;18.518;2023-04-10T14:05:37;100857.16;;;15.99;62.77
69214;BME280;56325;47.030;18.518;2023-04-10T14:08:11;100849.03;;;16.10;47.58
69214;BME280;56325;47.030;18.518;2023-04-10T14:10:48;100853.94;;;16.35;45.55
69214;BME280;56325;47.030;18.518;2023-04-10T14:13:22;100850.03;;;16.48;44.49
69214;BME280;56325;47.030;18.518;2023-04-10T14:15:57;100848.78;;;16.49;43.89
69214;BME280;56325;47.030;18.518;2023-04-10T14:18:34;100843.66;;;16.62;43.18
69214;BME280;56325;47.030;18.518;2023-04-10T14:21:09;100836.66;;;16.66;43.66
69214;BME280;56325;47.030;18.518;2023-04-10T14:23:43;100837.81;;;16.60;45.53
69214;BME280;56325;47.030;18.518;2023-04-10T14:26:18;100831.88;;;16.12;44.31
69214;BME280;56325;47.030;18.518;2023-04-10T14:28:53;100831.03;;;16.05;45.98
69214;BME280;56325;47.030;18.518;2023-04-10T14:31:28;100834.56;;;15.56;46.55
69214;BME280;56325;47.030;18.518;2023-04-10T14:34:04;100834.06;;;15.28;47.33
69214;BME280;56325;47.030;18.518;2023-04-10T14:36:39;100835.16;;;14.92;47.63
69214;BME280;56325;47.030;18.518;2023-04-10T14:39:14;100827.97;;;14.86;47.37
69214;BME280;56325;47.030;18.518;2023-04-10T14:41:50;100833.69;;;14.82;49.18
69214;BME280;56325;47.030;18.518;2023-04-10T14:44:25;100832.97;;;14.96;48.00
69214;BME280;56325;47.030;18.518;2023-04-10T14:47:00;100832.47;;;14.83;49.38
69214;BME280;56325;47.030;18.518;2023-04-10T14:49:39;100828.25;;;14.73;48.89
69214;BME280;56325;47.030;18.518;2023-04-10T14:52:14;100827.00;;;14.74;48.18
69214;BME280;56325;47.030;18.518;2023-04-10T14:54:49;100825.75;;;14.75;49.05
69214;BME280;56325;47.030;18.518;2023-04-10T14:57:23;100824.16;;;14.83;49.65
69214;BME280;56325;47.030;18.518;2023-04-10T14:59:58;100820.22;;;14.75;49.60
69214;BME280;56325;47.030;18.518;2023-04-10T15:02:33;100822.19;;;14.98;48.58
69214;BME280;56325;47.030;18.518;2023-04-10T15:05:09;100815.31;;;15.08;48.53
69214;BME280;56325;47.030;18.518;2023-04-10T15:07:44;100811.69;;;15.02;47.54
69214;BME280;56325;47.030;18.518;2023-04-10T15:10:19;100815.84;;;14.83;48.58
69214;BME280;56325;47.030;18.518;2023-04-10T15:12:54;100806.25;;;14.55;49.77
69214;BME280;56325;47.030;18.518;2023-04-10T15:15:28;100809.91;;;14.75;55.95
69214;BME280;56325;47.030;18.518;2023-04-10T15:18:03;100794.59;;;15.48;60.18
69214;BME280;56325;47.030;18.518;2023-04-10T15:20:39;100795.34;;;15.63;51.15
69214;BME280;56325;47.030;18.518;2023-04-10T15:23:14;100805.97;;;15.21;49.55
69214;BME280;56325;47.030;18.518;2023-04-10T15:25:48;100797.38;;;15.04;49.06
69214;BME280;56325;47.030;18.518;2023-04-10T15:28:23;100795.88;;;14.79;49.05
69214;BME280;56325;47.030;18.518;2023-04-10T15:31:00;100789.81;;;15.04;48.12
69214;BME280;56325;47.030;18.518;2023-04-10T15:33:34;100788.75;;;14.87;48.20
69214;BME280;56325;47.030;18.518;2023-04-10T15:36:12;100786.44;;;14.71;49.72
69214;BME280;56325;47.030;18.518;2023-04-10T15:38:47;100783.38;;;14.69;49.60
69214;BME280;56325;47.030;18.518;2023-04-10T15:41:22;100776.09;;;14.57;49.94
69214;BME280;56325;47.030;18.518;2023-04-10T15:43:57;100783.47;;;14.60;49.86
69214;BME280;56325;47.030;18.518;2023-04-10T15:46:32;100773.25;;;14.66;48.79
69214;BME280;56325;47.030;18.518;2023-04-10T15:49:07;100765.94;;;15.07;48.45
69214;BME280;56325;47.030;18.518;2023-04-10T15:51:43;100761.63;;;15.50;48.29
69214;BME280;56325;47.030;18.518;2023-04-10T15:54:18;100757.25;;;15.44;48.15
69214;BME280;56325;47.030;18.518;2023-04-10T15:56:52;100753.41;;;14.82;48.08
69214;BME280;56325;47.030;18.518;2023-04-10T15:59:27;100741.97;;;15.33;47.96
69214;BME280;56325;47.030;18.518;2023-04-10T16:02:01;100746.16;;;15.44;47.53
69214;BME280;56325;47.030;18.518;2023-04-10T16:04:36;100745.91;;;15.77;47.66
69214;BME280;56325;47.030;18.518;2023-04-10T16:07:12;100748.25;;;15.49;47.21
69214;BME280;56325;47.030;18.518;2023-04-10T16:09:47;100750.53;;;15.50;47.35
69214;BME280;56325;47.030;18.518;2023-04-10T16:12:24;100743.06;;;15.71;46.68
69214;BME280;56325;47.030;18.518;2023-04-10T16:14:59;100747.38;;;15.92;51.64
69214;BME280;56325;47.030;18.518;2023-04-10T16:17:33;100748.75;;;16.37;47.15
69214;BME280;56325;47.030;18.518;2023-04-10T16:20:08;100731.78;;;15.95;46.42
69214;BME280;56325;47.030;18.518;2023-04-10T16:22:44;100734.22;;;15.87;46.39
69214;BME280;56325;47.030;18.518;2023-04-10T16:25:20;100731.34;;;15.82;46.62
69214;BME280;56325;47.030;18.518;2023-04-10T16:27:55;100736.69;;;15.85;47.43
69214;BME280;56325;47.030;18.518;2023-04-10T16:30:29;100724.75;;;15.79;47.44
69214;BME280;56325;47.030;18.518;2023-04-10T16:33:04;100727.41;;;15.53;47.31
69214;BME280;56325;47.030;18.518;2023-04-10T16:35:39;100729.94;;;15.22;48.03
69214;BME280;56325;47.030;18.518;2023-04-10T16:38:15;100720.19;;;15.12;48.83
69214;BME280;56325;47.030;18.518;2023-04-10T16:40:49;100725.34;;;15.04;49.31
69214;BME280;56325;47.030;18.518;2023-04-10T16:43:24;100729.06;;;14.86;49.36
69214;BME280;56325;47.030;18.518;2023-04-10T16:45:58;100730.22;;;14.65;50.89
69214;BME280;56325;47.030;18.518;2023-04-10T16:48:33;100718.66;;;15.11;62.46
69214;BME280;56325;47.030;18.518;2023-04-10T16:51:14;100714.00;;;15.66;65.09
69214;BME280;56325;47.030;18.518;2023-04-10T16:53:50;100718.84;;;15.22;50.89
69214;BME280;56325;47.030;18.518;2023-04-10T16:56:25;100723.62;;;14.92;51.50
69214;BME280;56325;47.030;18.518;2023-04-10T16:59:00;100729.72;;;14.52;52.14
69214;BME280;56325;47.030;18.518;2023-04-10T17:01:34;100728.06;;;14.21;53.34
69214;BME280;56325;47.030;18.518;2023-04-10T17:04:11;100731.47;;;14.16;53.56
69214;BME280;56325;47.030;18.518;2023-04-10T17:06:48;100728.25;;;13.94;54.64
69214;BME280;56325;47.030;18.518;2023-04-10T17:09:24;100724.59;;;13.88;54.82
69214;BME280;56325;47.030;18.518;2023-04-10T17:12:00;100729.09;;;13.85;55.04
69214;BME280;56325;47.030;18.518;2023-04-10T17:14:34;100734.34;;;13.74;55.51
69214;BME280;56325;47.030;18.518;2023-04-10T17:17:09;100729.22;;;13.58;55.94
69214;BME280;56325;47.030;18.518;2023-04-10T17:19:43;100733.75;;;13.37;56.42
69214;BME280;56325;47.030;18.518;2023-04-10T17:22:19;100740.19;;;13.34;57.47
69214;BME280;56325;47.030;18.518;2023-04-10T17:24:56;100741.34;;;14.32;69.98
69214;BME280;56325;47.030;18.518;2023-04-10T17:27:31;100722.97;;;15.12;69.91
69214;BME280;56325;47.030;18.518;2023-04-10T17:30:10;100738.00;;;14.52;56.09
69214;BME280;56325;47.030;18.518;2023-04-10T17:32:45;100731.84;;;14.09;56.58
69214;BME280;56325;47.030;18.518;2023-04-10T17:35:21;100739.16;;;13.64;56.82
69214;BME280;56325;47.030;18.518;2023-04-10T17:37:57;100738.78;;;13.48;57.59
69214;BME280;56325;47.030;18.518;2023-04-10T17:40:33;100740.66;;;13.32;57.81
69214;BME280;56325;47.030;18.518;2023-04-10T17:43:08;100734.69;;;13.16;57.88
69214;BME280;56325;47.030;18.518;2023-04-10T17:45:42;100736.09;;;13.02;58.23
69214;BME280;56325;47.030;18.518;2023-04-10T17:48:17;100735.25;;;12.87;58.68
69214;BME280;56325;47.030;18.518;2023-04-10T17:50:52;100739.25;;;12.67;59.43
69214;BME280;56325;47.030;18.518;2023-04-10T17:53:27;100739.25;;;12.49;60.31
69214;BME280;56325;47.030;18.518;2023-04-10T17:56:03;100739.69;;;12.29;60.87
69214;BME280;56325;47.030;18.518;2023-04-10T17:58:38;100736.31;;;12.25;61.24
69214;BME280;56325;47.030;18.518;2023-04-10T18:01:20;100751.03;;;12.13;61.52
69214;BME280;56325;47.030;18.518;2023-04-10T18:03:56;100732.16;;;11.93;62.24
69214;BME280;56325;47.030;18.518;2023-04-10T18:06:31;100724.66;;;11.94;62.18
69214;BME280;56325;47.030;18.518;2023-04-10T18:09:05;100726.47;;;11.88;62.47
69214;BME280;56325;47.030;18.518;2023-04-10T18:11:41;100722.88;;;11.69;63.09
69214;BME280;56325;47.030;18.518;2023-04-10T18:14:16;100723.16;;;11.62;63.36
69214;BME280;56325;47.030;18.518;2023-04-10T18:16:50;100720.25;;;11.25;64.61
69214;BME280;56325;47.030;18.518;2023-04-10T18:19:25;100722.38;;;11.21;64.87
69214;BME280;56325;47.030;18.518;2023-04-10T18:22:01;100720.91;;;11.38;64.22
69214;BME280;56325;47.030;18.518;2023-04-10T18:24:36;100727.44;;;11.32;64.25
69214;BME280;56325;47.030;18.518;2023-04-10T18:27:12;100724.06;;;11.28;64.04
69214;BME280;56325;47.030;18.518;2023-04-10T18:29:47;100721.63;;;11.30;64.08
69214;BME280;56325;47.030;18.518;2023-04-10T18:32:21;100729.00;;;11.33;63.95
69214;BME280;56325;47.030;18.518;2023-04-10T18:34:56;100727.88;;;11.21;64.41
69214;BME280;56325;47.030;18.518;2023-04-10T18:37:32;100733.72;;;11.32;64.01
69214;BME280;56325;47.030;18.518;2023-04-10T18:40:08;100737.50;;;11.16;64.94
69214;BME280;56325;47.030;18.518;2023-04-10T18:42:50;100739.66;;;11.22;64.60
69214;BME280;56325;47.030;18.518;2023-04-10T18:45:25;100740.69;;;11.15;64.62
69214;BME280;56325;47.030;18.518;2023-04-10T18:47:59;100741.41;;;11.06;64.93
69214;BME280;56325;47.030;18.518;2023-04-10T18:50:35;100745.75;;;11.16;64.73